sensor_id;sensor_type;location;lat;lon;timestamp;pressure;altitude;pressure_sealevel;temperature
47484;BMP280;54076;50.322;18.650;2022-07-30T00:01:46;98971.90;;;19.94
47484;BMP280;54076;50.322;18.650;2022-07-30T00:06:47;98969.45;;;19.90
47484;BMP280;54076;50.322;18.650;2022-07-30T00:11:47;98962.53;;;19.72
47484;BMP280;54076;50.322;18.650;2022-07-30T00:16:48;98961.88;;;19.65
47484;BMP280;54076;50.322;18.650;2022-07-30T00:21:49;98956.27;;;19.66
47484;BMP280;54076;50.322;18.650;2022-07-30T00:26:50;98960.13;;;19.56
47484;BMP280;54076;50.322;18.650;2022-07-30T00:31:51;98955.96;;;19.61
47484;BMP280;54076;50.322;18.650;2022-07-30T00:36:52;98954.41;;;19.65
47484;BMP280;54076;50.322;18.650;2022-07-30T00:41:57;98954.62;;;19.62
47484;BMP280;54076;50.322;18.650;2022-07-30T00:46:58;98954.60;;;19.40
47484;BMP280;54076;50.322;18.650;2022-07-30T00:51:59;98949.63;;;19.36
47484;BMP280;54076;50.322;18.650;2022-07-30T00:57:00;98949.86;;;19.39
47484;BMP280;54076;50.322;18.650;2022-07-30T01:02:01;98941.09;;;19.38
47484;BMP280;54076;50.322;18.650;2022-07-30T01:07:03;98936.33;;;19.40
47484;BMP280;54076;50.322;18.650;2022-07-30T01:12:05;98922.46;;;19.37
47484;BMP280;54076;50.322;18.650;2022-07-30T01:17:07;98914.09;;;19.44
47484;BMP280;54076;50.322;18.650;2022-07-30T01:27:17;98901.38;;;19.39
47484;BMP280;54076;50.322;18.650;2022-07-30T01:32:22;98891.56;;;19.43
47484;BMP280;54076;50.322;18.650;2022-07-30T01:37:26;98883.73;;;19.44
47484;BMP280;54076;50.322;18.650;2022-07-30T01:42:29;98882.39;;;19.55
47484;BMP280;54076;50.322;18.650;2022-07-30T01:47:32;98883.00;;;19.60
47484;BMP280;54076;50.322;18.650;2022-07-30T01:52:35;98878.45;;;19.41
47484;BMP280;54076;50.322;18.650;2022-07-30T01:57:37;98870.88;;;19.34
47484;BMP280;54076;50.322;18.650;2022-07-30T02:02:39;98878.34;;;19.25
47484;BMP280;54076;50.322;18.650;2022-07-30T02:08:05;98879.50;;;19.12
47484;BMP280;54076;50.322;18.650;2022-07-30T02:13:09;98875.00;;;19.15
47484;BMP280;54076;50.322;18.650;2022-07-30T02:18:19;98879.73;;;19.13
47484;BMP280;54076;50.322;18.650;2022-07-30T02:23:22;98885.73;;;19.28
47484;BMP280;54076;50.322;18.650;2022-07-30T02:28:25;98886.02;;;19.07
47484;BMP280;54076;50.322;18.650;2022-07-30T02:33:38;98882.89;;;19.05
47484;BMP280;54076;50.322;18.650;2022-07-30T02:38:41;98894.08;;;19.04
47484;BMP280;54076;50.322;18.650;2022-07-30T02:43:44;98892.98;;;19.15
47484;BMP280;54076;50.322;18.650;2022-07-30T02:48:47;98884.98;;;19.15
47484;BMP280;54076;50.322;18.650;2022-07-30T02:53:50;98882.41;;;19.17
47484;BMP280;54076;50.322;18.650;2022-07-30T02:58:53;98879.65;;;19.18
47484;BMP280;54076;50.322;18.650;2022-07-30T03:03:56;98877.31;;;19.24
47484;BMP280;54076;50.322;18.650;2022-07-30T03:08:58;98872.56;;;19.27
47484;BMP280;54076;50.322;18.650;2022-07-30T03:14:01;98869.38;;;19.24
47484;BMP280;54076;50.322;18.650;2022-07-30T03:19:06;98861.11;;;19.23
47484;BMP280;54076;50.322;18.650;2022-07-30T03:24:11;98862.30;;;19.19
47484;BMP280;54076;50.322;18.650;2022-07-30T03:29:15;98858.67;;;18.88
47484;BMP280;54076;50.322;18.650;2022-07-30T03:34:18;98865.65;;;18.94
47484;BMP280;54076;50.322;18.650;2022-07-30T03:39:21;98859.06;;;19.02
47484;BMP280;54076;50.322;18.650;2022-07-30T03:44:22;98854.95;;;19.06
47484;BMP280;54076;50.322;18.650;2022-07-30T03:49:24;98854.32;;;18.99
47484;BMP280;54076;50.322;18.650;2022-07-30T03:54:26;98854.11;;;19.14
47484;BMP280;54076;50.322;18.650;2022-07-30T03:59:28;98862.92;;;19.16
47484;BMP280;54076;50.322;18.650;2022-07-30T04:04:29;98875.90;;;19.29
47484;BMP280;54076;50.322;18.650;2022-07-30T04:09:30;98879.11;;;19.27
47484;BMP280;54076;50.322;18.650;2022-07-30T04:14:43;98880.20;;;19.28
47484;BMP280;54076;50.322;18.650;2022-07-30T04:19:52;98875.46;;;19.30
47484;BMP280;54076;50.322;18.650;2022-07-30T04:24:57;98869.33;;;19.47
47484;BMP280;54076;50.322;18.650;2022-07-30T04:29:59;98867.88;;;19.56
47484;BMP280;54076;50.322;18.650;2022-07-30T04:35:00;98867.64;;;19.41
47484;BMP280;54076;50.322;18.650;2022-07-30T04:40:04;98879.92;;;19.60
47484;BMP280;54076;50.322;18.650;2022-07-30T04:45:06;98879.14;;;19.81
47484;BMP280;54076;50.322;18.650;2022-07-30T04:50:09;98879.29;;;19.81
47484;BMP280;54076;50.322;18.650;2022-07-30T04:55:10;98873.27;;;19.87
47484;BMP280;54076;50.322;18.650;2022-07-30T05:00:13;98858.27;;;19.99
47484;BMP280;54076;50.322;18.650;2022-07-30T05:05:15;98861.22;;;20.15
47484;BMP280;54076;50.322;18.650;2022-07-30T05:10:17;98871.77;;;20.27
47484;BMP280;54076;50.322;18.650;2022-07-30T05:15:18;98862.54;;;20.38
47484;BMP280;54076;50.322;18.650;2022-07-30T05:20:19;98870.18;;;20.63
47484;BMP280;54076;50.322;18.650;2022-07-30T05:25:20;98866.33;;;20.59
47484;BMP280;54076;50.322;18.650;2022-07-30T05:30:22;98870.08;;;20.62
47484;BMP280;54076;50.322;18.650;2022-07-30T05:35:23;98862.36;;;20.57
47484;BMP280;54076;50.322;18.650;2022-07-30T05:40:24;98856.08;;;20.47
47484;BMP280;54076;50.322;18.650;2022-07-30T05:45:25;98855.65;;;20.42
47484;BMP280;54076;50.322;18.650;2022-07-30T05:50:26;98856.59;;;20.65
47484;BMP280;54076;50.322;18.650;2022-07-30T05:55:27;98850.08;;;20.80
47484;BMP280;54076;50.322;18.650;2022-07-30T06:00:28;98838.80;;;21.16
47484;BMP280;54076;50.322;18.650;2022-07-30T06:05:29;98839.45;;;21.40
47484;BMP280;54076;50.322;18.650;2022-07-30T06:10:32;98842.50;;;21.63
47484;BMP280;54076;50.322;18.650;2022-07-30T06:15:33;98838.20;;;21.54
47484;BMP280;54076;50.322;18.650;2022-07-30T06:20:34;98830.74;;;21.70
47484;BMP280;54076;50.322;18.650;2022-07-30T06:25:36;98837.75;;;21.85
47484;BMP280;54076;50.322;18.650;2022-07-30T06:30:37;98841.40;;;21.81
47484;BMP280;54076;50.322;18.650;2022-07-30T06:35:38;98841.20;;;22.01
47484;BMP280;54076;50.322;18.650;2022-07-30T06:40:39;98840.27;;;22.25
47484;BMP280;54076;50.322;18.650;2022-07-30T06:45:40;98836.70;;;22.16
47484;BMP280;54076;50.322;18.650;2022-07-30T06:50:41;98834.00;;;22.18
47484;BMP280;54076;50.322;18.650;2022-07-30T06:55:42;98825.92;;;22.28
47484;BMP280;54076;50.322;18.650;2022-07-30T07:00:43;98816.54;;;22.37
47484;BMP280;54076;50.322;18.650;2022-07-30T07:05:44;98817.33;;;22.38
47484;BMP280;54076;50.322;18.650;2022-07-30T07:10:45;98809.86;;;22.28
47484;BMP280;54076;50.322;18.650;2022-07-30T07:15:46;98809.19;;;22.69
47484;BMP280;54076;50.322;18.650;2022-07-30T07:20:47;98807.60;;;23.20
47484;BMP280;54076;50.322;18.650;2022-07-30T07:25:48;98807.19;;;23.05
47484;BMP280;54076;50.322;18.650;2022-07-30T07:30:49;98813.80;;;23.09
47484;BMP280;54076;50.322;18.650;2022-07-30T07:35:50;98827.18;;;22.99
47484;BMP280;54076;50.322;18.650;2022-07-30T07:40:52;98822.64;;;23.25
47484;BMP280;54076;50.322;18.650;2022-07-30T07:45:53;98815.08;;;23.35
47484;BMP280;54076;50.322;18.650;2022-07-30T07:50:54;98800.70;;;23.28
47484;BMP280;54076;50.322;18.650;2022-07-30T07:55:55;98795.48;;;23.59
47484;BMP280;54076;50.322;18.650;2022-07-30T08:00:56;98792.95;;;23.66
47484;BMP280;54076;50.322;18.650;2022-07-30T08:05:57;98785.98;;;23.86
47484;BMP280;54076;50.322;18.650;2022-07-30T08:11:02;98789.10;;;23.86
47484;BMP280;54076;50.322;18.650;2022-07-30T08:16:03;98785.94;;;24.03
47484;BMP280;54076;50.322;18.650;2022-07-30T08:21:05;98778.52;;;24.16
47484;BMP280;54076;50.322;18.650;2022-07-30T08:26:08;98781.34;;;24.57
47484;BMP280;54076;50.322;18.650;2022-07-30T08:31:09;98777.06;;;24.56
47484;BMP280;54076;50.322;18.650;2022-07-30T08:36:10;98773.03;;;24.24
47484;BMP280;54076;50.322;18.650;2022-07-30T08:41:11;98771.77;;;24.49
47484;BMP280;54076;50.322;18.650;2022-07-30T08:46:14;98764.80;;;24.41
47484;BMP280;54076;50.322;18.650;2022-07-30T08:51:18;98759.45;;;24.53
47484;BMP280;54076;50.322;18.650;2022-07-30T08:56:19;98757.87;;;24.91
47484;BMP280;54076;50.322;18.650;2022-07-30T09:01:21;98754.41;;;25.04
47484;BMP280;54076;50.322;18.650;2022-07-30T09:06:22;98754.65;;;25.20
47484;BMP280;54076;50.322;18.650;2022-07-30T09:11:23;98755.36;;;25.23
47484;BMP280;54076;50.322;18.650;2022-07-30T09:16:25;98739.88;;;25.11
47484;BMP280;54076;50.322;18.650;2022-07-30T09:21:27;98746.70;;;25.47
47484;BMP280;54076;50.322;18.650;2022-07-30T09:26:30;98753.67;;;25.49
47484;BMP280;54076;50.322;18.650;2022-07-30T09:31:53;98750.11;;;25.53
47484;BMP280;54076;50.322;18.650;2022-07-30T09:36:57;98757.98;;;25.73
47484;BMP280;54076;50.322;18.650;2022-07-30T09:42:00;98752.17;;;25.93
47484;BMP280;54076;50.322;18.650;2022-07-30T09:47:02;98749.44;;;25.67
47484;BMP280;54076;50.322;18.650;2022-07-30T09:52:03;98741.48;;;25.99
47484;BMP280;54076;50.322;18.650;2022-07-30T09:57:05;98745.23;;;26.11
47484;BMP280;54076;50.322;18.650;2022-07-30T10:02:11;98743.42;;;25.70
47484;BMP280;54076;50.322;18.650;2022-07-30T10:07:20;98744.42;;;25.69
47484;BMP280;54076;50.322;18.650;2022-07-30T10:12:24;98733.52;;;26.48
47484;BMP280;54076;50.322;18.650;2022-07-30T10:17:26;98726.20;;;27.05
47484;BMP280;54076;50.322;18.650;2022-07-30T10:22:27;98722.25;;;27.11
47484;BMP280;54076;50.322;18.650;2022-07-30T10:27:30;98725.33;;;26.02
47484;BMP280;54076;50.322;18.650;2022-07-30T10:32:31;98729.53;;;25.94
47484;BMP280;54076;50.322;18.650;2022-07-30T10:37:34;98733.56;;;26.01
47484;BMP280;54076;50.322;18.650;2022-07-30T10:48:12;98738.98;;;25.40
47484;BMP280;54076;50.322;18.650;2022-07-30T10:53:43;98742.45;;;25.19
47484;BMP280;54076;50.322;18.650;2022-07-30T10:59:00;98746.80;;;24.94
47484;BMP280;54076;50.322;18.650;2022-07-30T11:09:37;98740.84;;;24.44
47484;BMP280;54076;50.322;18.650;2022-07-30T11:14:54;98731.33;;;24.52
47484;BMP280;54076;50.322;18.650;2022-07-30T11:30:32;98742.05;;;23.77
47484;BMP280;54076;50.322;18.650;2022-07-30T11:35:33;98744.32;;;23.54
47484;BMP280;54076;50.322;18.650;2022-07-30T11:51:14;98748.70;;;23.23
47484;BMP280;54076;50.322;18.650;2022-07-30T11:56:15;98758.44;;;22.96
47484;BMP280;54076;50.322;18.650;2022-07-30T12:01:16;98767.04;;;22.55
47484;BMP280;54076;50.322;18.650;2022-07-30T12:06:17;98774.92;;;22.26
47484;BMP280;54076;50.322;18.650;2022-07-30T12:11:19;98776.78;;;22.10
47484;BMP280;54076;50.322;18.650;2022-07-30T12:16:20;98778.04;;;21.95
47484;BMP280;54076;50.322;18.650;2022-07-30T12:21:23;98784.77;;;21.78
47484;BMP280;54076;50.322;18.650;2022-07-30T12:26:30;98792.67;;;21.74
47484;BMP280;54076;50.322;18.650;2022-07-30T12:31:32;98795.07;;;21.75
47484;BMP280;54076;50.322;18.650;2022-07-30T12:36:34;98789.21;;;21.79
47484;BMP280;54076;50.322;18.650;2022-07-30T12:41:48;98785.14;;;21.56
47484;BMP280;54076;50.322;18.650;2022-07-30T12:46:49;98784.97;;;21.48
47484;BMP280;54076;50.322;18.650;2022-07-30T12:51:52;98788.38;;;21.46
47484;BMP280;54076;50.322;18.650;2022-07-30T12:57:01;98780.75;;;21.37
47484;BMP280;54076;50.322;18.650;2022-07-30T13:02:03;98777.05;;;21.22
47484;BMP280;54076;50.322;18.650;2022-07-30T13:07:11;98774.02;;;21.39
47484;BMP280;54076;50.322;18.650;2022-07-30T13:12:12;98770.55;;;21.38
47484;BMP280;54076;50.322;18.650;2022-07-30T13:17:14;98763.27;;;21.37
47484;BMP280;54076;50.322;18.650;2022-07-30T13:22:15;98758.25;;;21.34
47484;BMP280;54076;50.322;18.650;2022-07-30T13:27:16;98758.83;;;21.41
47484;BMP280;54076;50.322;18.650;2022-07-30T13:32:17;98754.38;;;21.29
47484;BMP280;54076;50.322;18.650;2022-07-30T13:37:18;98744.49;;;21.34
47484;BMP280;54076;50.322;18.650;2022-07-30T13:42:19;98745.08;;;21.39
47484;BMP280;54076;50.322;18.650;2022-07-30T13:47:20;98741.60;;;21.33
47484;BMP280;54076;50.322;18.650;2022-07-30T13:52:21;98741.27;;;21.21
47484;BMP280;54076;50.322;18.650;2022-07-30T13:57:22;98734.12;;;21.17
47484;BMP280;54076;50.322;18.650;2022-07-30T14:02:23;98734.79;;;21.12
47484;BMP280;54076;50.322;18.650;2022-07-30T14:07:24;98735.47;;;21.24
47484;BMP280;54076;50.322;18.650;2022-07-30T14:12:25;98727.83;;;21.16
47484;BMP280;54076;50.322;18.650;2022-07-30T14:17:26;98720.41;;;21.07
47484;BMP280;54076;50.322;18.650;2022-07-30T14:22:27;98717.23;;;20.96
47484;BMP280;54076;50.322;18.650;2022-07-30T14:27:28;98711.98;;;20.80
47484;BMP280;54076;50.322;18.650;2022-07-30T14:32:29;98700.80;;;20.59
47484;BMP280;54076;50.322;18.650;2022-07-30T14:37:30;98700.52;;;20.50
47484;BMP280;54076;50.322;18.650;2022-07-30T14:42:32;98691.94;;;20.44
47484;BMP280;54076;50.322;18.650;2022-07-30T14:47:32;98691.63;;;20.44
47484;BMP280;54076;50.322;18.650;2022-07-30T14:52:35;98690.02;;;20.47
47484;BMP280;54076;50.322;18.650;2022-07-30T14:57:38;98697.99;;;20.46
47484;BMP280;54076;50.322;18.650;2022-07-30T15:02:39;98697.89;;;20.34
47484;BMP280;54076;50.322;18.650;2022-07-30T15:07:40;98699.91;;;20.30
47484;BMP280;54076;50.322;18.650;2022-07-30T15:12:41;98705.02;;;20.25
47484;BMP280;54076;50.322;18.650;2022-07-30T15:17:42;98702.88;;;20.26
47484;BMP280;54076;50.322;18.650;2022-07-30T15:22:43;98701.16;;;20.35
47484;BMP280;54076;50.322;18.650;2022-07-30T15:27:44;98705.18;;;20.28
47484;BMP280;54076;50.322;18.650;2022-07-30T15:32:46;98709.09;;;20.34
47484;BMP280;54076;50.322;18.650;2022-07-30T15:37:47;98716.30;;;20.14
47484;BMP280;54076;50.322;18.650;2022-07-30T15:42:48;98710.70;;;19.90
47484;BMP280;54076;50.322;18.650;2022-07-30T15:47:49;98714.08;;;19.88
47484;BMP280;54076;50.322;18.650;2022-07-30T15:52:50;98711.52;;;19.78
47484;BMP280;54076;50.322;18.650;2022-07-30T15:57:51;98712.86;;;19.84
47484;BMP280;54076;50.322;18.650;2022-07-30T16:02:52;98710.06;;;19.82
47484;BMP280;54076;50.322;18.650;2022-07-30T16:07:55;98710.23;;;19.79
47484;BMP280;54076;50.322;18.650;2022-07-30T16:12:56;98708.75;;;19.60
47484;BMP280;54076;50.322;18.650;2022-07-30T16:17:57;98716.91;;;19.51
47484;BMP280;54076;50.322;18.650;2022-07-30T16:22:59;98721.73;;;19.47
47484;BMP280;54076;50.322;18.650;2022-07-30T16:28:00;98715.52;;;19.36
47484;BMP280;54076;50.322;18.650;2022-07-30T16:33:01;98699.91;;;19.38
47484;BMP280;54076;50.322;18.650;2022-07-30T16:38:02;98701.40;;;19.31
47484;BMP280;54076;50.322;18.650;2022-07-30T16:43:03;98696.95;;;19.33
47484;BMP280;54076;50.322;18.650;2022-07-30T16:48:05;98707.58;;;19.29
47484;BMP280;54076;50.322;18.650;2022-07-30T16:53:08;98712.77;;;19.43
47484;BMP280;54076;50.322;18.650;2022-07-30T16:58:10;98721.16;;;19.35
47484;BMP280;54076;50.322;18.650;2022-07-30T17:03:11;98724.79;;;19.21
47484;BMP280;54076;50.322;18.650;2022-07-30T17:08:12;98729.37;;;19.16
47484;BMP280;54076;50.322;18.650;2022-07-30T17:13:14;98730.13;;;19.24
47484;BMP280;54076;50.322;18.650;2022-07-30T17:18:15;98732.73;;;19.17
47484;BMP280;54076;50.322;18.650;2022-07-30T17:23:16;98730.10;;;19.18
47484;BMP280;54076;50.322;18.650;2022-07-30T17:28:17;98723.31;;;19.14
47484;BMP280;54076;50.322;18.650;2022-07-30T17:33:19;98721.66;;;19.16
47484;BMP280;54076;50.322;18.650;2022-07-30T17:38:20;98724.57;;;19.06
47484;BMP280;54076;50.322;18.650;2022-07-30T17:43:21;98729.16;;;19.04
47484;BMP280;54076;50.322;18.650;2022-07-30T17:48:22;98728.19;;;18.92
47484;BMP280;54076;50.322;18.650;2022-07-30T17:53:23;98733.71;;;18.89
47484;BMP280;54076;50.322;18.650;2022-07-30T17:58:24;98725.35;;;18.84
47484;BMP280;54076;50.322;18.650;2022-07-30T18:03:25;98717.55;;;18.79
47484;BMP280;54076;50.322;18.650;2022-07-30T18:08:26;98714.88;;;18.65
47484;BMP280;54076;50.322;18.650;2022-07-30T18:13:32;98714.30;;;18.59
47484;BMP280;54076;50.322;18.650;2022-07-30T18:18:34;98713.16;;;18.55
47484;BMP280;54076;50.322;18.650;2022-07-30T18:23:35;98716.09;;;18.52
47484;BMP280;54076;50.322;18.650;2022-07-30T18:28:36;98709.23;;;18.49
47484;BMP280;54076;50.322;18.650;2022-07-30T18:33:37;98708.02;;;18.42
47484;BMP280;54076;50.322;18.650;2022-07-30T18:38:38;98714.05;;;18.38
47484;BMP280;54076;50.322;18.650;2022-07-30T18:43:39;98719.11;;;18.37
47484;BMP280;54076;50.322;18.650;2022-07-30T18:48:40;98717.05;;;18.39
47484;BMP280;54076;50.322;18.650;2022-07-30T18:53:41;98713.16;;;18.35
47484;BMP280;54076;50.322;18.650;2022-07-30T18:58:42;98712.39;;;18.30
47484;BMP280;54076;50.322;18.650;2022-07-30T19:03:44;98711.55;;;18.22
47484;BMP280;54076;50.322;18.650;2022-07-30T19:08:45;98709.69;;;18.04
47484;BMP280;54076;50.322;18.650;2022-07-30T19:13:46;98713.38;;;18.04
47484;BMP280;54076;50.322;18.650;2022-07-30T19:18:47;98727.66;;;18.02
47484;BMP280;54076;50.322;18.650;2022-07-30T19:23:48;98715.30;;;18.10
47484;BMP280;54076;50.322;18.650;2022-07-30T19:28:49;98714.34;;;17.99
47484;BMP280;54076;50.322;18.650;2022-07-30T19:33:50;98712.59;;;17.95
47484;BMP280;54076;50.322;18.650;2022-07-30T19:38:51;98702.05;;;17.98
47484;BMP280;54076;50.322;18.650;2022-07-30T19:43:53;98701.49;;;18.07
47484;BMP280;54076;50.322;18.650;2022-07-30T19:48:54;98699.65;;;18.08
47484;BMP280;54076;50.322;18.650;2022-07-30T19:53:56;98694.27;;;18.09
47484;BMP280;54076;50.322;18.650;2022-07-30T19:59:00;98691.05;;;18.12
47484;BMP280;54076;50.322;18.650;2022-07-30T20:04:04;98688.70;;;18.14
47484;BMP280;54076;50.322;18.650;2022-07-30T20:09:05;98685.96;;;18.13
47484;BMP280;54076;50.322;18.650;2022-07-30T20:14:06;98683.90;;;17.99
47484;BMP280;54076;50.322;18.650;2022-07-30T20:19:07;98679.66;;;18.15
47484;BMP280;54076;50.322;18.650;2022-07-30T20:24:09;98673.27;;;18.02
47484;BMP280;54076;50.322;18.650;2022-07-30T20:29:11;98667.21;;;18.02
47484;BMP280;54076;50.322;18.650;2022-07-30T20:34:11;98669.56;;;18.07
47484;BMP280;54076;50.322;18.650;2022-07-30T20:39:12;98674.35;;;17.94
47484;BMP280;54076;50.322;18.650;2022-07-30T20:44:14;98670.07;;;17.95
47484;BMP280;54076;50.322;18.650;2022-07-30T20:49:14;98670.73;;;17.79
47484;BMP280;54076;50.322;18.650;2022-07-30T20:54:15;98663.73;;;17.91
47484;BMP280;54076;50.322;18.650;2022-07-30T20:59:17;98659.45;;;17.93
47484;BMP280;54076;50.322;18.650;2022-07-30T21:04:18;98653.71;;;17.84
47484;BMP280;54076;50.322;18.650;2022-07-30T21:09:19;98647.42;;;17.85
47484;BMP280;54076;50.322;18.650;2022-07-30T21:14:20;98646.60;;;17.92
47484;BMP280;54076;50.322;18.650;2022-07-30T21:19:21;98649.10;;;17.91
47484;BMP280;54076;50.322;18.650;2022-07-30T21:24:22;98645.89;;;17.96
47484;BMP280;54076;50.322;18.650;2022-07-30T21:29:24;98641.73;;;17.93
47484;BMP280;54076;50.322;18.650;2022-07-30T21:34:27;98645.15;;;18.07
47484;BMP280;54076;50.322;18.650;2022-07-30T21:39:28;98642.02;;;18.03
47484;BMP280;54076;50.322;18.650;2022-07-30T21:44:29;98639.80;;;18.13
47484;BMP280;54076;50.322;18.650;2022-07-30T21:49:30;98637.79;;;18.21
47484;BMP280;54076;50.322;18.650;2022-07-30T21:54:31;98632.36;;;18.21
47484;BMP280;54076;50.322;18.650;2022-07-30T21:59:33;98629.08;;;18.29
47484;BMP280;54076;50.322;18.650;2022-07-30T22:04:33;98623.59;;;18.35
47484;BMP280;54076;50.322;18.650;2022-07-30T22:09:34;98618.95;;;18.31
47484;BMP280;54076;50.322;18.650;2022-07-30T22:14:36;98617.48;;;18.25
47484;BMP280;54076;50.322;18.650;2022-07-30T22:19:37;98614.86;;;18.16
47484;BMP280;54076;50.322;18.650;2022-07-30T22:24:38;98612.45;;;18.16
47484;BMP280;54076;50.322;18.650;2022-07-30T22:29:39;98611.13;;;18.09
47484;BMP280;54076;50.322;18.650;2022-07-30T22:34:41;98605.08;;;18.19
47484;BMP280;54076;50.322;18.650;2022-07-30T22:39:42;98602.17;;;18.15
47484;BMP280;54076;50.322;18.650;2022-07-30T22:44:43;98599.83;;;18.20
47484;BMP280;54076;50.322;18.650;2022-07-30T22:49:44;98596.88;;;18.23
47484;BMP280;54076;50.322;18.650;2022-07-30T22:54:45;98588.39;;;18.14
47484;BMP280;54076;50.322;18.650;2022-07-30T22:59:46;98589.05;;;18.02
47484;BMP280;54076;50.322;18.650;2022-07-30T23:04:47;98585.23;;;17.99
47484;BMP280;54076;50.322;18.650;2022-07-30T23:09:48;98579.69;;;18.02
47484;BMP280;54076;50.322;18.650;2022-07-30T23:14:51;98574.08;;;18.05
47484;BMP280;54076;50.322;18.650;2022-07-30T23:19:53;98568.13;;;18.16
47484;BMP280;54076;50.322;18.650;2022-07-30T23:24:54;98566.40;;;18.06
47484;BMP280;54076;50.322;18.650;2022-07-30T23:29:55;98561.29;;;18.04
47484;BMP280;54076;50.322;18.650;2022-07-30T23:34:56;98551.85;;;18.10
47484;BMP280;54076;50.322;18.650;2022-07-30T23:39:57;98546.44;;;18.14
47484;BMP280;54076;50.322;18.650;2022-07-30T23:44:59;98548.95;;;18.16
47484;BMP280;54076;50.322;18.650;2022-07-30T23:49:59;98550.89;;;18.09
47484;BMP280;54076;50.322;18.650;2022-07-30T23:55:00;98544.67;;;18.15
